createdAt,value
2018-12-27T00:00:19.431Z,99799.82
2018-12-27T00:02:30.345Z,99791.39
2018-12-27T00:04:41.283Z,99791.39
2018-12-27T00:06:52.206Z,99782.95
2018-12-27T00:09:44.798Z,99781.30
2018-12-27T00:11:55.761Z,99782.22
2018-12-27T00:14:06.677Z,99776.70
2018-12-27T00:16:17.619Z,99780.05
2018-12-27T00:18:28.525Z,99780.51
2018-12-27T00:20:39.479Z,99778.72
2018-12-27T00:22:50.386Z,99775.84
2018-12-27T00:25:01.557Z,99773.25
2018-12-27T00:27:12.509Z,99775.33
2018-12-27T00:29:23.433Z,99776.22
2018-12-27T00:31:34.383Z,99766.84
2018-12-27T00:33:45.309Z,99769.48
2018-12-27T00:35:56.264Z,99762.38
2018-12-27T00:38:07.191Z,99765.43
2018-12-27T00:40:18.149Z,99756.52
2018-12-27T00:42:29.152Z,99752.32
2018-12-27T00:44:40.081Z,99754.78
2018-12-27T00:46:51.026Z,99752.98
2018-12-27T00:49:01.941Z,99752.50
2018-12-27T00:51:12.884Z,99750.43
2018-12-27T00:53:23.811Z,99755.57
2018-12-27T00:55:34.727Z,99753.09
2018-12-27T00:57:45.693Z,99749.73
2018-12-27T00:59:56.623Z,99752.32
2018-12-27T01:02:07.587Z,99750.20
2018-12-27T01:04:18.514Z,99750.26
2018-12-27T01:06:29.558Z,99751.62
2018-12-27T01:08:40.476Z,99747.89
2018-12-27T01:10:51.410Z,99745.30
2018-12-27T01:13:02.357Z,99745.73
2018-12-27T01:15:13.297Z,99743.59
2018-12-27T01:17:24.241Z,99743.18
2018-12-27T01:19:35.185Z,99736.81
2018-12-27T01:21:46.110Z,99740.63
2018-12-27T01:23:57.049Z,99737.13
2018-12-27T01:26:07.968Z,99743.89
2018-12-27T01:28:18.900Z,99748.13
2018-12-27T01:30:29.817Z,99743.41
2018-12-27T01:32:40.759Z,99739.16
2018-12-27T01:34:51.680Z,99742.52
2018-12-27T01:37:02.599Z,99744.96
2018-12-27T01:39:13.540Z,99748.69
2018-12-27T01:41:24.465Z,99745.61
2018-12-27T01:43:35.430Z,99745.61
2018-12-27T01:45:46.361Z,99749.33
2018-12-27T01:47:57.283Z,99744.18
2018-12-27T01:50:08.219Z,99746.20
2018-12-27T01:52:19.151Z,99746.56
2018-12-27T01:54:30.093Z,99738.45
2018-12-27T01:56:41.030Z,99743.17
2018-12-27T01:58:51.994Z,99738.55
2018-12-27T02:01:03.026Z,99738.18
2018-12-27T02:03:13.965Z,99736.91
2018-12-27T02:05:24.911Z,99740.78
2018-12-27T02:07:35.864Z,99739.08
2018-12-27T02:09:46.802Z,99725.56
2018-12-27T02:11:57.742Z,99725.14
2018-12-27T02:14:08.657Z,99729.06
2018-12-27T02:16:19.595Z,99725.77
2018-12-27T02:18:30.510Z,99725.67
2018-12-27T02:20:41.448Z,99727.73
2018-12-27T02:22:52.361Z,99725.28
2018-12-27T02:25:03.281Z,99720.63
2018-12-27T02:27:14.212Z,99720.15
2018-12-27T02:29:25.133Z,99723.92
2018-12-27T02:31:37.193Z,99718.39
2018-12-27T02:33:48.953Z,99710.30
2018-12-27T02:35:59.988Z,99709.44
2018-12-27T02:38:10.912Z,99714.06
2018-12-27T02:40:21.881Z,99708.07
2018-12-27T02:42:32.813Z,99702.17
2018-12-27T02:44:43.720Z,99706.80
2018-12-27T02:46:54.659Z,99693.59
2018-12-27T02:49:05.616Z,99697.36
2018-12-27T02:51:16.533Z,99685.89
2018-12-27T02:53:27.499Z,99689.34
2018-12-27T02:55:38.410Z,99683.83
2018-12-27T02:57:49.372Z,99692.63
2018-12-27T03:00:00.324Z,99689.50
2018-12-27T03:02:11.327Z,99686.02
2018-12-27T03:04:22.269Z,99684.78
2018-12-27T03:06:33.179Z,99686.06
2018-12-27T03:08:44.230Z,99682.67
2018-12-27T03:10:55.165Z,99677.62
2018-12-27T03:13:06.090Z,99676.46
2018-12-27T03:15:17.022Z,99684.57
2018-12-27T03:17:27.950Z,99677.31
2018-12-27T03:19:38.900Z,99671.75
2018-12-27T03:21:49.815Z,99667.09
2018-12-27T03:24:00.760Z,99665.86
2018-12-27T03:26:11.681Z,99661.20
2018-12-27T03:28:22.594Z,99654.88
2018-12-27T03:30:33.549Z,99656.11
2018-12-27T03:32:44.479Z,99650.95
2018-12-27T03:34:55.424Z,99647.84
2018-12-27T03:37:06.346Z,99651.50
2018-12-27T03:39:17.287Z,99645.02
2018-12-27T03:41:28.243Z,99646.52
2018-12-27T03:43:39.179Z,99643.07
2018-12-27T03:45:50.171Z,99641.80
2018-12-27T03:48:01.087Z,99630.41
2018-12-27T03:50:12.034Z,99633.80
2018-12-27T03:52:22.948Z,99637.67
2018-12-27T03:54:33.886Z,99633.95
2018-12-27T03:56:44.841Z,99625.53
2018-12-27T03:58:55.789Z,99627.80
2018-12-27T04:01:06.787Z,99625.74
2018-12-27T04:03:17.654Z,99622.39
2018-12-27T04:05:28.609Z,99624.98
2018-12-27T04:07:39.527Z,99621.55
2018-12-27T04:09:50.461Z,99621.91
2018-12-27T04:12:01.410Z,99620.16
2018-12-27T04:14:12.329Z,99617.63
2018-12-27T04:16:23.283Z,99616.30
2018-12-27T04:18:34.242Z,99617.91
2018-12-27T04:20:45.178Z,99618.69
2018-12-27T04:22:56.102Z,99615.93
2018-12-27T04:25:48.694Z,99614.08
2018-12-27T04:27:59.629Z,99609.66
2018-12-27T04:30:10.552Z,99612.20
2018-12-27T04:33:03.121Z,99607.96
2018-12-27T04:35:14.146Z,99607.92
2018-12-27T04:37:25.092Z,99605.48
2018-12-27T04:39:36.001Z,99603.78
2018-12-27T04:42:28.615Z,99602.58
2018-12-27T04:45:21.218Z,99605.59
2018-12-27T04:47:32.126Z,99609.84
2018-12-27T04:49:43.045Z,99613.33
2018-12-27T04:51:53.985Z,99611.27
2018-12-27T04:54:04.896Z,99613.08
2018-12-27T04:56:15.827Z,99622.93
2018-12-27T04:58:26.787Z,99619.08
2018-12-27T05:00:37.710Z,99612.65
2018-12-27T05:02:48.662Z,99614.20
2018-12-27T05:04:59.582Z,99609.41
2018-12-27T05:07:10.511Z,99613.17
2018-12-27T05:09:21.456Z,99607.55
2018-12-27T05:11:32.358Z,99610.95
2018-12-27T05:13:43.366Z,99608.83
2018-12-27T05:15:54.230Z,99598.60
2018-12-27T05:18:05.173Z,99602.83
2018-12-27T05:20:16.101Z,99602.39
2018-12-27T05:22:27.019Z,99598.58
2018-12-27T05:24:37.950Z,99599.80
2018-12-27T05:26:48.880Z,99606.05
2018-12-27T05:28:59.809Z,99603.52
2018-12-27T05:31:10.790Z,99606.04
2018-12-27T05:33:21.701Z,99611.13
2018-12-27T05:35:32.669Z,99617.48
2018-12-27T05:37:43.587Z,99615.37
2018-12-27T05:39:54.519Z,99614.57
2018-12-27T05:42:05.439Z,99610.39
2018-12-27T05:44:16.364Z,99611.29
2018-12-27T05:46:27.284Z,99607.05
2018-12-27T05:48:38.267Z,99612.57
2018-12-27T05:50:49.212Z,99615.91
2018-12-27T05:53:00.138Z,99614.09
2018-12-27T05:55:11.045Z,99621.22
2018-12-27T05:57:22.007Z,99622.19
2018-12-27T05:59:32.944Z,99620.92
2018-12-27T06:01:43.858Z,99616.27
2018-12-27T06:03:54.823Z,99617.22
2018-12-27T06:06:05.805Z,99611.19
2018-12-27T06:08:16.729Z,99610.65
2018-12-27T06:10:27.666Z,99610.58
2018-12-27T06:12:38.598Z,99601.62
2018-12-27T06:14:49.517Z,99598.18
2018-12-27T06:17:00.563Z,99594.37
2018-12-27T06:19:11.490Z,99594.73
2018-12-27T06:21:22.418Z,99594.73
2018-12-27T06:23:33.337Z,99607.55
2018-12-27T06:25:44.258Z,99603.80
2018-12-27T06:27:55.200Z,99611.25
2018-12-27T06:30:06.111Z,99607.17
2018-12-27T06:32:17.065Z,99611.16
2018-12-27T06:34:28.015Z,99604.02
2018-12-27T06:36:38.939Z,99599.47
2018-12-27T06:38:49.868Z,99601.32
2018-12-27T06:41:00.800Z,99605.66
2018-12-27T06:43:11.750Z,99605.29
2018-12-27T06:45:22.675Z,99607.92
2018-12-27T06:47:33.637Z,99610.09
2018-12-27T06:49:44.581Z,99607.45
2018-12-27T06:51:55.525Z,99608.67
2018-12-27T06:54:06.436Z,99618.44
2018-12-27T06:56:17.355Z,99607.78
2018-12-27T06:58:28.312Z,99604.77
2018-12-27T07:00:39.236Z,99606.03
2018-12-27T07:02:50.181Z,99598.36
2018-12-27T07:05:01.136Z,99591.98
2018-12-27T07:07:12.080Z,99595.80
2018-12-27T07:09:23.015Z,99600.46
2018-12-27T07:11:33.930Z,99597.97
2018-12-27T07:13:44.869Z,99601.83
2018-12-27T07:15:55.783Z,99596.75
2018-12-27T07:18:06.716Z,99596.81
2018-12-27T07:20:17.641Z,99598.55
2018-12-27T07:22:28.553Z,99596.48
2018-12-27T07:24:39.499Z,99602.42
2018-12-27T07:26:50.423Z,99608.83
2018-12-27T07:29:01.359Z,99606.33
2018-12-27T07:31:12.291Z,99610.20
2018-12-27T07:33:23.309Z,99609.40
2018-12-27T07:35:34.262Z,99602.19
2018-12-27T07:37:45.191Z,99605.59
2018-12-27T07:39:56.140Z,99615.00
2018-12-27T07:42:07.184Z,99619.25
2018-12-27T07:44:18.129Z,99610.39
2018-12-27T07:46:29.063Z,99612.97
2018-12-27T07:48:39.984Z,99610.77
2018-12-27T07:50:50.940Z,99614.38
2018-12-27T07:53:01.853Z,99615.24
2018-12-27T07:55:12.800Z,99616.98
2018-12-27T07:57:23.726Z,99604.25
2018-12-27T07:59:34.662Z,99605.95
2018-12-27T08:01:45.674Z,99611.09
2018-12-27T08:03:56.610Z,99602.98
2018-12-27T08:06:07.543Z,99592.33
2018-12-27T08:08:18.459Z,99588.91
2018-12-27T08:10:29.414Z,99589.88
2018-12-27T08:12:40.353Z,99588.75
2018-12-27T08:14:51.281Z,99593.60
2018-12-27T08:17:02.226Z,99591.22
2018-12-27T08:19:13.143Z,99595.21
2018-12-27T08:21:24.090Z,99593.62
2018-12-27T08:23:35.007Z,99596.33
2018-12-27T08:25:45.933Z,99591.44
2018-12-27T08:27:56.874Z,99595.57
2018-12-27T08:30:07.908Z,99580.53
2018-12-27T08:32:18.843Z,99582.87
2018-12-27T08:34:29.764Z,99582.61
2018-12-27T08:36:40.690Z,99588.61
2018-12-27T08:38:51.628Z,99587.77
2018-12-27T08:41:02.654Z,99589.51
2018-12-27T08:43:13.654Z,99580.13
2018-12-27T08:45:24.575Z,99579.25
2018-12-27T08:47:35.507Z,99582.23
2018-12-27T08:49:46.424Z,99585.62
2018-12-27T08:51:57.369Z,99588.61
2018-12-27T08:54:08.278Z,99588.61
2018-12-27T08:56:19.201Z,99587.74
2018-12-27T08:58:30.166Z,99579.23
2018-12-27T09:00:41.093Z,99587.32
2018-12-27T09:02:52.022Z,99587.70
2018-12-27T09:07:55.297Z,99583.43
2018-12-27T09:10:06.228Z,99588.10
2018-12-27T09:12:17.154Z,99586.84
2018-12-27T09:14:28.130Z,99584.72
2018-12-27T09:16:39.037Z,99584.73
2018-12-27T09:19:09.866Z,99579.20
2018-12-27T09:21:20.791Z,99579.20
2018-12-27T09:23:31.747Z,99577.96
2018-12-27T09:25:42.661Z,99571.16
2018-12-27T09:28:13.488Z,99567.76
2018-12-27T09:30:24.449Z,99567.76
2018-12-27T09:32:35.384Z,99564.80
2018-12-27T09:34:46.367Z,99558.82
2018-12-27T09:36:57.303Z,99557.99
2018-12-27T09:39:08.235Z,99568.22
2018-12-27T09:41:19.155Z,99560.12
2018-12-27T09:43:30.073Z,99562.25
2018-12-27T09:45:41.045Z,99557.58
2018-12-27T09:47:51.975Z,99562.27
2018-12-27T09:50:44.548Z,99557.16
2018-12-27T09:52:55.484Z,99555.86
2018-12-27T09:55:06.441Z,99550.73
2018-12-27T09:57:17.373Z,99553.72
2018-12-27T09:59:28.315Z,99555.84
2018-12-27T10:01:39.265Z,99560.53
2018-12-27T10:03:50.177Z,99553.73
2018-12-27T10:06:01.145Z,99560.55
2018-12-27T10:08:12.068Z,99563.08
2018-12-27T10:10:23.027Z,99559.67
2018-12-27T10:12:33.939Z,99559.67
2018-12-27T10:14:44.849Z,99550.67
2018-12-27T10:16:55.800Z,99551.95
2018-12-27T10:19:06.704Z,99550.21
2018-12-27T10:21:17.641Z,99549.81
2018-12-27T10:23:28.690Z,99549.39
2018-12-27T10:25:39.611Z,99539.98
2018-12-27T10:27:50.554Z,99538.27
2018-12-27T10:30:01.453Z,99533.98
2018-12-27T10:32:12.397Z,99536.08
2018-12-27T10:34:23.345Z,99528.81
2018-12-27T10:36:34.254Z,99527.97
2018-12-27T10:38:45.208Z,99532.22
2018-12-27T10:40:56.129Z,99527.92
2018-12-27T10:43:07.074Z,99529.16
2018-12-27T10:45:18.006Z,99534.28
2018-12-27T10:47:28.945Z,99528.30
2018-12-27T10:49:39.845Z,99528.69
2018-12-27T10:51:50.817Z,99525.25
2018-12-27T10:54:01.781Z,99521.78
2018-12-27T10:56:12.727Z,99518.34
2018-12-27T10:58:23.688Z,99516.64
2018-12-27T11:00:34.633Z,99513.22
2018-12-27T11:02:45.574Z,99508.46
2018-12-27T11:04:57.482Z,99510.50
2018-12-27T11:07:09.314Z,99505.70
2018-12-27T11:09:20.254Z,99503.92
2018-12-27T11:11:31.280Z,99497.05
2018-12-27T11:13:42.246Z,99499.19
2018-12-27T11:15:53.173Z,99486.26
2018-12-27T11:18:04.117Z,99481.53
2018-12-27T11:20:15.145Z,99475.84
2018-12-27T11:22:26.063Z,99469.73
2018-12-27T11:24:37.031Z,99463.39
2018-12-27T11:26:47.984Z,99463.86
2018-12-27T11:28:58.915Z,99457.84
2018-12-27T11:31:09.850Z,99453.16
2018-12-27T11:33:20.887Z,99450.55
2018-12-27T11:35:31.742Z,99462.13
2018-12-27T11:37:42.817Z,99451.40
2018-12-27T11:39:53.745Z,99452.22
2018-12-27T11:42:04.812Z,99446.70
2018-12-27T11:44:15.787Z,99443.76
2018-12-27T11:46:26.718Z,99434.80
2018-12-27T11:48:37.636Z,99437.78
2018-12-27T11:50:48.575Z,99438.59
2018-12-27T11:52:59.513Z,99430.05
2018-12-27T11:55:10.461Z,99428.36
2018-12-27T11:57:21.404Z,99435.59
2018-12-27T11:59:32.370Z,99426.63
2018-12-27T12:01:43.310Z,99424.09
2018-12-27T12:03:54.239Z,99422.81
2018-12-27T12:06:05.186Z,99422.78
2018-12-27T12:08:16.129Z,99417.66
2018-12-27T12:10:27.101Z,99414.65
2018-12-27T12:12:38.034Z,99414.65
2018-12-27T12:14:48.998Z,99407.00
2018-12-27T12:16:59.915Z,99403.16
2018-12-27T12:19:10.947Z,99405.25
2018-12-27T12:21:21.904Z,99397.94
2018-12-27T12:23:32.850Z,99401.06
2018-12-27T12:25:43.825Z,99392.39
2018-12-27T12:27:54.747Z,99389.50
2018-12-27T12:30:47.338Z,99386.23
2018-12-27T12:32:58.300Z,99388.46
2018-12-27T12:35:29.123Z,99380.02
2018-12-27T12:37:40.183Z,99379.70
2018-12-27T12:39:51.113Z,99375.45
2018-12-27T12:42:08.794Z,99381.47
2018-12-27T12:44:19.709Z,99383.22
2018-12-27T12:46:30.685Z,99384.13
2018-12-27T12:48:41.643Z,99377.27
2018-12-27T12:50:52.603Z,99384.53
2018-12-27T12:53:03.534Z,99372.98
2018-12-27T12:55:14.458Z,99376.42
2018-12-27T12:57:45.277Z,99369.13
2018-12-27T12:59:56.229Z,99369.13
2018-12-27T13:02:07.158Z,99365.69
2018-12-27T13:04:18.128Z,99370.38
2018-12-27T13:06:29.084Z,99378.08
2018-12-27T13:08:40.009Z,99370.38
2018-12-27T13:10:50.974Z,99375.08
2018-12-27T13:13:01.920Z,99373.32
2018-12-27T13:15:12.831Z,99376.80
2018-12-27T13:17:23.875Z,99371.80
2018-12-27T13:19:34.820Z,99368.79
2018-12-27T13:21:45.738Z,99370.89
2018-12-27T13:23:56.707Z,99369.94
2018-12-27T13:26:07.646Z,99361.39
2018-12-27T13:28:18.594Z,99361.46
2018-12-27T13:30:29.563Z,99355.89
2018-12-27T13:32:40.518Z,99361.67
2018-12-27T13:34:51.474Z,99360.68
2018-12-27T13:37:02.414Z,99362.12
2018-12-27T13:39:13.346Z,99360.53
2018-12-27T13:41:24.316Z,99358.59
2018-12-27T13:43:35.270Z,99361.70
2018-12-27T13:45:46.219Z,99362.20
2018-12-27T13:47:57.137Z,99364.80
2018-12-27T13:50:08.092Z,99361.39
2018-12-27T13:52:19.033Z,99366.63
2018-12-27T13:54:29.978Z,99361.12
2018-12-27T13:56:40.916Z,99365.88
2018-12-27T13:58:51.907Z,99367.59
2018-12-27T14:01:02.885Z,99364.62
2018-12-27T14:03:13.806Z,99361.63
2018-12-27T14:05:24.749Z,99365.91
2018-12-27T14:07:35.684Z,99356.11
2018-12-27T14:09:46.618Z,99358.23
2018-12-27T14:11:57.574Z,99354.39
2018-12-27T14:14:08.527Z,99348.44
2018-12-27T14:16:19.589Z,99356.08
2018-12-27T14:18:30.523Z,99357.33
2018-12-27T14:20:41.467Z,99359.52
2018-12-27T14:22:52.418Z,99360.43
2018-12-27T14:25:03.436Z,99355.33
2018-12-27T14:27:14.371Z,99361.30
2018-12-27T14:29:25.317Z,99354.92
2018-12-27T14:31:36.251Z,99354.05
2018-12-27T14:33:47.154Z,99353.16
2018-12-27T14:35:58.170Z,99354.48
2018-12-27T14:38:09.110Z,99356.61
2018-12-27T14:40:20.057Z,99354.05
2018-12-27T14:42:30.990Z,99358.77
2018-12-27T14:44:41.912Z,99357.55
2018-12-27T14:46:52.867Z,99357.13
2018-12-27T14:49:03.807Z,99357.20
2018-12-27T14:51:14.760Z,99363.61
2018-12-27T14:53:25.698Z,99363.20
2018-12-27T14:55:36.646Z,99363.63
2018-12-27T14:58:07.493Z,99362.82
2018-12-27T15:00:18.633Z,99361.56
2018-12-27T15:02:29.614Z,99365.00
2018-12-27T15:04:40.573Z,99365.02
2018-12-27T15:06:51.484Z,99367.17
2018-12-27T15:09:44.078Z,99365.95
2018-12-27T15:11:55.028Z,99370.67
2018-12-27T15:14:06.092Z,99367.28
2018-12-27T15:16:17.026Z,99367.33
2018-12-27T15:18:27.986Z,99363.10
2018-12-27T15:20:38.938Z,99361.44
2018-12-27T15:22:49.873Z,99360.20
2018-12-27T15:25:00.806Z,99358.48
2018-12-27T15:27:11.774Z,99354.25
2018-12-27T15:29:22.830Z,99348.70
2018-12-27T15:31:33.754Z,99350.43
2018-12-27T15:33:44.703Z,99354.34
2018-12-27T15:35:55.642Z,99359.35
2018-12-27T15:38:06.568Z,99356.76
2018-12-27T15:40:17.519Z,99355.03
2018-12-27T15:42:28.441Z,99354.50
2018-12-27T15:44:39.432Z,99358.27
2018-12-27T15:46:50.329Z,99353.84
2018-12-27T15:49:01.280Z,99358.67
2018-12-27T15:51:12.222Z,99364.82
2018-12-27T15:53:23.151Z,99358.92
2018-12-27T15:55:34.177Z,99370.98
2018-12-27T15:57:45.071Z,99368.07
2018-12-27T15:59:56.035Z,99375.34
2018-12-27T16:02:06.986Z,99377.96
2018-12-27T16:04:18.015Z,99375.87
2018-12-27T16:06:28.963Z,99372.47
2018-12-27T16:08:39.913Z,99381.91
2018-12-27T16:10:50.871Z,99378.51
2018-12-27T16:13:01.830Z,99381.11
2018-12-27T16:15:12.762Z,99379.84
2018-12-27T16:17:23.703Z,99390.11
2018-12-27T16:19:34.661Z,99389.27
2018-12-27T16:21:45.638Z,99386.30
2018-12-27T16:23:56.595Z,99393.17
2018-12-27T16:26:07.564Z,99391.49
2018-12-27T16:28:18.511Z,99393.22
2018-12-27T16:31:11.099Z,99393.22
2018-12-27T16:33:22.026Z,99399.20
2018-12-27T16:35:32.952Z,99403.51
2018-12-27T16:37:43.958Z,99402.23
2018-12-27T16:39:54.892Z,99407.81
2018-12-27T16:42:05.937Z,99409.10
2018-12-27T16:44:16.888Z,99408.26
2018-12-27T16:46:27.829Z,99404.02
2018-12-27T16:48:38.803Z,99410.44
2018-12-27T16:50:49.770Z,99413.42
2018-12-27T16:53:00.740Z,99408.73
2018-12-27T16:55:11.670Z,99408.30
2018-12-27T16:57:22.593Z,99401.05
2018-12-27T16:59:33.619Z,99400.23
2018-12-27T17:01:44.566Z,99404.06
2018-12-27T17:03:55.567Z,99405.80
2018-12-27T17:06:06.501Z,99409.23
2018-12-27T17:08:17.469Z,99404.97
2018-12-27T17:10:28.378Z,99409.23
2018-12-27T17:12:39.331Z,99404.13
2018-12-27T17:14:50.298Z,99408.38
2018-12-27T17:17:01.230Z,99402.84
2018-12-27T17:19:12.214Z,99407.97
2018-12-27T17:21:23.138Z,99403.27
2018-12-27T17:23:34.156Z,99407.12
2018-12-27T17:25:45.068Z,99411.38
2018-12-27T17:27:55.995Z,99410.12
2018-12-27T17:30:48.630Z,99406.27
2018-12-27T17:32:59.545Z,99416.94
2018-12-27T17:35:10.517Z,99422.05
2018-12-27T17:37:23.443Z,99409.67
2018-12-27T17:39:34.345Z,99406.27
2018-12-27T17:41:45.303Z,99413.11
2018-12-27T17:43:56.242Z,99409.70
2018-12-27T17:46:07.200Z,99398.59
2018-12-27T17:48:18.175Z,99405.87
2018-12-27T17:50:29.182Z,99407.13
2018-12-27T17:52:40.096Z,99400.33
2018-12-27T17:54:51.012Z,99405.00
2018-12-27T17:57:01.965Z,99396.50
2018-12-27T17:59:12.936Z,99398.63
2018-12-27T18:01:23.916Z,99404.16
2018-12-27T18:03:34.838Z,99398.20
2018-12-27T18:05:45.862Z,99396.06
2018-12-27T18:07:56.800Z,99405.45
2018-12-27T18:10:07.743Z,99410.13
2018-12-27T18:12:18.712Z,99404.17
2018-12-27T18:14:29.648Z,99405.86
2018-12-27T18:16:40.636Z,99406.70
2018-12-27T18:18:51.565Z,99402.03
2018-12-27T18:21:02.530Z,99407.56
2018-12-27T18:23:13.450Z,99413.52
2018-12-27T18:25:24.394Z,99410.95
2018-12-27T18:27:35.344Z,99418.19
2018-12-27T18:29:46.261Z,99419.88
2018-12-27T18:31:57.227Z,99411.37
2018-12-27T18:34:08.177Z,99408.38
2018-12-27T18:36:19.101Z,99417.31
2018-12-27T18:38:30.059Z,99413.03
2018-12-27T18:40:41.019Z,99416.44
2018-12-27T18:42:51.978Z,99417.30
2018-12-27T18:45:44.545Z,99413.88
2018-12-27T18:47:55.506Z,99413.84
2018-12-27T18:50:06.589Z,99415.13
2018-12-27T18:52:17.545Z,99417.27
2018-12-27T18:54:28.479Z,99421.09
2018-12-27T18:56:39.423Z,99430.45
2018-12-27T18:58:50.356Z,99429.19
2018-12-27T19:01:01.398Z,99422.37
2018-12-27T19:03:12.374Z,99424.05
2018-12-27T19:05:23.411Z,99421.92
2018-12-27T19:07:34.371Z,99418.55
2018-12-27T19:09:45.421Z,99418.95
2018-12-27T19:12:36.097Z,99410.44
2018-12-27T19:15:28.706Z,99413.39
2018-12-27T19:18:21.312Z,99425.33
2018-12-27T19:21:13.887Z,99420.62
2018-12-27T19:23:25.073Z,99423.57
2018-12-27T19:25:36.006Z,99430.81
2018-12-27T19:27:46.941Z,99429.09
2018-12-27T19:29:58.021Z,99432.52
2018-12-27T19:32:08.920Z,99428.70
2018-12-27T19:34:19.916Z,99432.97
2018-12-27T19:36:30.847Z,99435.12
2018-12-27T19:38:41.777Z,99440.66
2018-12-27T19:40:52.755Z,99449.16
2018-12-27T19:43:03.779Z,99442.38
2018-12-27T19:45:14.879Z,99441.53
2018-12-27T19:47:25.828Z,99443.66
2018-12-27T19:49:36.801Z,99444.11
2018-12-27T19:51:47.756Z,99436.46
2018-12-27T19:56:31.116Z,99439.42
2018-12-27T19:58:42.050Z,99435.59
2018-12-27T20:00:53.026Z,99444.97
2018-12-27T20:03:03.971Z,99450.94
2018-12-27T20:05:14.935Z,99445.80
2018-12-27T20:07:25.979Z,99444.56
2018-12-27T20:09:36.908Z,99444.14
2018-12-27T20:11:47.919Z,99450.52
2018-12-27T20:13:58.946Z,99454.72
2018-12-27T20:16:09.914Z,99445.33
2018-12-27T20:18:20.860Z,99443.61
2018-12-27T20:20:31.878Z,99446.56
2018-12-27T20:23:24.537Z,99448.64
2018-12-27T20:25:35.494Z,99445.27
2018-12-27T20:27:46.453Z,99446.57
2018-12-27T20:29:57.375Z,99452.13
2018-12-27T20:32:08.316Z,99458.09
2018-12-27T20:34:19.227Z,99452.57
2018-12-27T20:36:30.192Z,99454.73
2018-12-27T20:38:41.166Z,99451.73
2018-12-27T20:40:52.119Z,99448.77
2018-12-27T20:43:03.118Z,99455.55
2018-12-27T20:45:14.091Z,99446.62
2018-12-27T20:47:25.062Z,99446.20
2018-12-27T20:49:36.015Z,99442.34
2018-12-27T20:51:46.922Z,99444.05
2018-12-27T20:53:57.932Z,99440.66
2018-12-27T20:56:08.872Z,99442.78
2018-12-27T20:58:19.827Z,99438.92
2018-12-27T21:00:30.767Z,99433.39
2018-12-27T21:02:41.816Z,99435.95
2018-12-27T21:04:52.749Z,99431.68
2018-12-27T21:07:03.700Z,99432.12
2018-12-27T21:09:14.665Z,99432.55
2018-12-27T21:11:25.585Z,99418.92
2018-12-27T21:13:36.563Z,99417.22
2018-12-27T21:15:47.506Z,99419.77
2018-12-27T21:17:58.443Z,99422.33
2018-12-27T21:20:09.515Z,99425.33
2018-12-27T21:22:20.471Z,99425.78
2018-12-27T21:24:31.416Z,99427.08
2018-12-27T21:26:42.330Z,99422.39
2018-12-27T21:28:53.282Z,99435.59
2018-12-27T21:31:04.240Z,99434.36
2018-12-27T21:33:15.185Z,99427.95
2018-12-27T21:35:26.143Z,99428.81
2018-12-27T21:37:37.099Z,99423.72
2018-12-27T21:39:48.045Z,99432.23
2018-12-27T21:41:58.971Z,99438.63
2018-12-27T21:44:09.902Z,99430.95
2018-12-27T21:46:20.927Z,99432.66
2018-12-27T21:48:31.852Z,99429.27
2018-12-27T21:50:42.818Z,99429.27
2018-12-27T21:52:53.756Z,99437.35
2018-12-27T21:55:04.745Z,99438.22
2018-12-27T21:57:15.734Z,99432.25
2018-12-27T21:59:26.674Z,99425.86
2018-12-27T22:01:37.680Z,99427.53
2018-12-27T22:03:48.639Z,99436.92
2018-12-27T22:05:59.630Z,99438.64
2018-12-27T22:08:10.558Z,99426.72
2018-12-27T22:10:21.489Z,99425.45
2018-12-27T22:12:32.442Z,99422.89
2018-12-27T22:14:43.361Z,99417.36
2018-12-27T22:16:54.301Z,99425.03
2018-12-27T22:19:05.273Z,99426.73
2018-12-27T22:21:16.215Z,99426.72
2018-12-27T22:23:27.164Z,99428.41
2018-12-27T22:25:38.118Z,99423.72
2018-12-27T22:27:49.066Z,99426.69
2018-12-27T22:29:59.998Z,99427.52
2018-12-27T22:32:10.935Z,99430.94
2018-12-27T22:34:21.893Z,99438.59
2018-12-27T22:36:32.838Z,99436.05
2018-12-27T22:38:43.786Z,99430.08
2018-12-27T22:40:54.777Z,99435.60
2018-12-27T22:43:05.721Z,99428.36
2018-12-27T22:45:16.673Z,99433.89
2018-12-27T22:47:27.595Z,99436.03
2018-12-27T22:49:38.553Z,99436.02
2018-12-27T22:51:49.509Z,99441.55
2018-12-27T22:54:00.475Z,99444.08
2018-12-27T22:56:11.421Z,99436.84
2018-12-27T22:58:22.446Z,99444.06
2018-12-27T23:02:52.234Z,99438.94
2018-12-27T23:05:44.842Z,99447.45
2018-12-27T23:07:55.788Z,99449.95
2018-12-27T23:10:06.825Z,99445.70
2018-12-27T23:12:17.858Z,99445.28
2018-12-27T23:14:28.793Z,99451.23
2018-12-27T23:16:39.721Z,99453.83
2018-12-27T23:23:59.821Z,99442.34
2018-12-27T23:26:10.776Z,99438.09
2018-12-27T23:28:21.814Z,99435.94
2018-12-27T23:30:32.740Z,99432.08
2018-12-27T23:32:43.677Z,99426.98
2018-12-27T23:34:54.619Z,99425.69
2018-12-27T23:37:05.570Z,99422.32
2018-12-27T23:39:16.485Z,99423.17
2018-12-27T23:41:27.422Z,99415.06
2018-12-27T23:43:38.340Z,99419.33
2018-12-27T23:45:49.301Z,99411.64
2018-12-27T23:48:00.232Z,99414.22
2018-12-27T23:50:11.162Z,99416.30
2018-12-27T23:52:22.095Z,99415.45
2018-12-27T23:54:33.037Z,99412.45
2018-12-27T23:56:44.000Z,99409.89
2018-12-27T23:58:54.997Z,99409.50
